createdAt,value
2022-10-01T00:01:49.763Z,28.92
2022-10-01T00:03:51.478Z,28.90
2022-10-01T00:06:03.516Z,33.97
2022-10-01T00:08:05.343Z,27.80
2022-10-01T00:10:07.827Z,20.95
2022-10-01T00:12:09.347Z,32.80
2022-10-01T00:14:10.846Z,25.58
2022-10-01T00:16:13.309Z,24.52
2022-10-01T00:18:14.810Z,28.73
2022-10-01T00:20:16.400Z,32.05
2022-10-01T00:22:19.070Z,22.63
2022-10-01T00:24:20.733Z,25.02
2022-10-01T00:26:25.555Z,32.33
2022-10-01T00:28:27.112Z,29.83
2022-10-01T00:30:32.188Z,25.77
2022-10-01T00:32:44.004Z,38.83
2022-10-01T00:34:52.989Z,36.20
2022-10-01T00:37:02.127Z,30.23
2022-10-01T00:39:10.558Z,33.28
2022-10-01T00:41:19.414Z,26.77
2022-10-01T00:43:34.551Z,38.00
2022-10-01T00:45:46.423Z,31.33
2022-10-01T00:48:02.385Z,23.83
2022-10-01T00:50:30.296Z,30.20
2022-10-01T00:52:43.852Z,34.05
2022-10-01T00:54:57.052Z,28.30
2022-10-01T00:57:07.941Z,36.58
2022-10-01T00:59:12.306Z,30.98
2022-10-01T01:01:14.054Z,32.05
2022-10-01T01:03:15.671Z,30.27
2022-10-01T01:05:17.833Z,31.60
2022-10-01T01:07:19.865Z,41.95
2022-10-01T01:09:22.718Z,38.33
2022-10-01T01:11:33.417Z,31.23
2022-10-01T01:13:35.288Z,45.78
2022-10-01T01:15:39.802Z,35.70
2022-10-01T01:17:57.761Z,27.90
2022-10-01T01:20:18.082Z,38.72
2022-10-01T01:22:21.712Z,37.10
2022-10-01T01:24:23.836Z,35.55
2022-10-01T01:26:29.517Z,34.28
2022-10-01T01:28:36.056Z,32.60
2022-10-01T01:30:41.225Z,32.92
2022-10-01T01:33:03.332Z,45.90
2022-10-01T01:35:07.529Z,40.08
2022-10-01T01:37:12.066Z,38.40
2022-10-01T01:39:14.859Z,40.00
2022-10-01T01:41:17.215Z,39.58
2022-10-01T01:43:20.931Z,44.53
2022-10-01T01:45:28.807Z,44.80
2022-10-01T01:47:32.948Z,47.72
2022-10-01T01:49:34.685Z,29.55
2022-10-01T01:51:43.079Z,36.25
2022-10-01T01:53:44.720Z,28.52
2022-10-01T01:55:49.364Z,20.20
2022-10-01T01:57:51.511Z,38.28
2022-10-01T01:59:54.150Z,40.05
2022-10-01T02:01:55.856Z,40.38
2022-10-01T02:03:57.500Z,46.35
2022-10-01T02:06:02.089Z,45.47
2022-10-01T02:08:03.815Z,47.33
2022-10-01T02:10:23.774Z,44.85
2022-10-01T02:12:37.336Z,41.85
2022-10-01T02:14:48.441Z,45.65
2022-10-01T02:16:56.151Z,38.00
2022-10-01T02:19:01.698Z,45.78
2022-10-01T02:21:16.043Z,37.08
2022-10-01T02:23:24.213Z,34.22
2022-10-01T02:25:28.751Z,35.50
2022-10-01T02:27:32.758Z,42.53
2022-10-01T02:29:35.226Z,38.47
2022-10-01T02:31:37.131Z,44.40
2022-10-01T02:33:40.074Z,50.75
2022-10-01T02:35:43.479Z,50.53
2022-10-01T02:37:45.986Z,41.05
2022-10-01T02:39:52.822Z,51.58
2022-10-01T02:41:55.717Z,35.08
2022-10-01T02:44:00.207Z,28.58
2022-10-01T02:46:06.982Z,31.67
2022-10-01T02:48:09.975Z,48.60
2022-10-01T02:50:13.033Z,49.55
2022-10-01T02:52:25.374Z,39.63
2022-10-01T02:54:33.907Z,37.75
2022-10-01T02:56:56.277Z,44.03
2022-10-01T02:58:58.186Z,54.13
2022-10-01T03:00:59.753Z,34.03
2022-10-01T03:03:01.264Z,37.95
2022-10-01T03:05:03.379Z,49.78
2022-10-01T03:07:04.948Z,30.60
2022-10-01T03:09:08.813Z,40.58
2022-10-01T03:11:10.570Z,43.90
2022-10-01T03:13:12.139Z,34.00
2022-10-01T03:15:14.819Z,43.28
2022-10-01T03:17:16.560Z,39.83
2022-10-01T03:19:18.150Z,44.20
2022-10-01T03:21:19.626Z,42.58
2022-10-01T03:23:21.084Z,37.88
2022-10-01T03:25:22.867Z,44.40
2022-10-01T03:27:24.298Z,43.70
2022-10-01T03:29:26.393Z,41.50
2022-10-01T03:31:28.081Z,33.63
2022-10-01T03:33:29.809Z,44.35
2022-10-01T03:35:32.334Z,43.55
2022-10-01T03:37:40.896Z,42.15
2022-10-01T03:39:53.461Z,34.78
2022-10-01T03:42:03.312Z,32.95
2022-10-01T03:44:12.879Z,46.13
2022-10-01T03:46:22.503Z,34.83
2022-10-01T03:48:32.562Z,53.45
2022-10-01T03:50:42.262Z,34.53
2022-10-01T03:52:54.866Z,44.40
2022-10-01T03:55:05.014Z,52.08
2022-10-01T03:57:15.417Z,32.70
2022-10-01T03:59:26.602Z,44.03
2022-10-01T04:01:35.980Z,33.17
2022-10-01T04:03:38.181Z,33.33
2022-10-01T04:05:39.899Z,39.55
2022-10-01T04:07:42.118Z,47.67
2022-10-01T04:09:43.827Z,35.08
2022-10-01T04:11:45.370Z,37.38
2022-10-01T04:13:46.913Z,37.35
2022-10-01T04:15:48.884Z,50.63
2022-10-01T04:17:50.518Z,37.42
2022-10-01T04:19:52.086Z,40.63
2022-10-01T04:21:53.596Z,36.40
2022-10-01T04:23:55.150Z,31.48
2022-10-01T04:26:03.123Z,43.17
2022-10-01T04:28:05.930Z,36.17
2022-10-01T04:30:08.557Z,38.17
2022-10-01T04:32:10.145Z,48.00
2022-10-01T04:34:11.675Z,38.03
2022-10-01T04:36:13.261Z,26.50
2022-10-01T04:38:16.421Z,49.63
2022-10-01T04:40:18.065Z,35.13
2022-10-01T04:42:20.326Z,32.63
2022-10-01T04:44:22.074Z,29.67
2022-10-01T04:46:23.699Z,22.42
2022-10-01T04:48:25.372Z,55.25
2022-10-01T04:50:27.225Z,33.30
2022-10-01T04:52:29.116Z,45.78
2022-10-01T04:54:30.698Z,41.47
2022-10-01T04:56:32.176Z,28.00
2022-10-01T04:58:33.661Z,44.45
2022-10-01T05:00:35.691Z,38.00
2022-10-01T05:02:37.892Z,40.42
2022-10-01T05:04:39.567Z,38.95
2022-10-01T05:06:41.499Z,29.52
2022-10-01T05:08:43.063Z,46.08
2022-10-01T05:10:44.702Z,31.13
2022-10-01T05:12:47.252Z,35.30
2022-10-01T05:14:48.884Z,36.17
2022-10-01T05:16:50.443Z,31.10
2022-10-01T05:18:52.036Z,26.33
2022-10-01T05:20:53.516Z,21.88
2022-10-01T05:22:56.560Z,27.83
2022-10-01T05:25:00.238Z,29.70
2022-10-01T05:27:01.859Z,26.85
2022-10-01T05:29:03.679Z,25.00
2022-10-01T05:31:05.439Z,40.45
2022-10-01T05:33:07.084Z,25.55
2022-10-01T05:35:08.949Z,38.90
2022-10-01T05:37:12.030Z,36.72
2022-10-01T05:39:13.638Z,20.85
2022-10-01T05:41:16.210Z,35.17
2022-10-01T05:43:18.749Z,19.52
2022-10-01T05:45:21.051Z,28.48
2022-10-01T05:47:22.985Z,25.63
2022-10-01T05:49:25.421Z,19.92
2022-10-01T05:51:27.495Z,29.33
2022-10-01T05:53:28.914Z,21.25
2022-10-01T05:55:34.866Z,15.07
2022-10-01T05:57:36.583Z,17.48
2022-10-01T05:59:38.390Z,16.77
2022-10-01T06:01:40.185Z,27.63
2022-10-01T06:03:42.826Z,21.85
2022-10-01T06:05:44.847Z,39.97
2022-10-01T06:07:46.555Z,27.70
2022-10-01T06:09:48.149Z,17.98
2022-10-01T06:11:50.021Z,23.92
2022-10-01T06:13:51.528Z,26.13
2022-10-01T06:15:53.129Z,27.08
2022-10-01T06:17:54.954Z,15.40
2022-10-01T06:19:56.512Z,20.85
2022-10-01T06:21:58.041Z,29.30
2022-10-01T06:23:59.996Z,26.27
2022-10-01T06:26:02.266Z,24.95
2022-10-01T06:28:06.016Z,31.90
2022-10-01T06:30:08.137Z,23.05
2022-10-01T06:32:13.590Z,36.65
2022-10-01T06:34:15.114Z,30.77
2022-10-01T06:36:16.714Z,27.15
2022-10-01T06:38:22.203Z,36.72
2022-10-01T06:40:24.286Z,26.75
2022-10-01T06:42:27.445Z,32.17
2022-10-01T06:44:37.575Z,25.92
2022-10-01T06:46:50.077Z,37.30
2022-10-01T06:48:59.961Z,31.98
2022-10-01T06:51:09.634Z,22.27
2022-10-01T06:53:21.488Z,28.27
2022-10-01T06:55:32.601Z,23.83
2022-10-01T06:57:43.965Z,29.73
2022-10-01T06:59:53.895Z,16.73
2022-10-01T07:02:04.403Z,24.83
2022-10-01T07:04:16.715Z,20.27
2022-10-01T07:06:28.142Z,30.83
2022-10-01T07:08:39.337Z,27.98
2022-10-01T07:10:42.139Z,29.55
2022-10-01T07:12:43.895Z,24.88
2022-10-01T07:14:45.455Z,33.08
2022-10-01T07:16:47.211Z,28.42
2022-10-01T07:18:48.876Z,26.08
2022-10-01T07:20:50.574Z,25.02
2022-10-01T07:22:56.785Z,25.35
2022-10-01T07:24:58.276Z,36.25
2022-10-01T07:27:02.642Z,27.73
2022-10-01T07:29:09.743Z,26.25
2022-10-01T07:31:11.740Z,29.50
2022-10-01T07:33:14.090Z,21.70
2022-10-01T07:35:16.447Z,21.40
2022-10-01T07:37:18.193Z,25.40
2022-10-01T07:39:20.470Z,27.35
2022-10-01T07:41:22.236Z,20.83
2022-10-01T07:43:23.914Z,26.98
2022-10-01T07:45:25.855Z,29.73
2022-10-01T07:47:27.396Z,27.45
2022-10-01T07:49:28.923Z,30.80
2022-10-01T07:51:30.591Z,22.88
2022-10-01T07:53:32.516Z,30.23
2022-10-01T07:55:34.288Z,39.55
2022-10-01T07:57:35.745Z,34.28
2022-10-01T07:59:38.479Z,26.85
2022-10-01T08:01:39.988Z,26.60
2022-10-01T08:03:41.414Z,27.45
2022-10-01T08:05:43.437Z,35.63
2022-10-01T08:07:45.450Z,25.38
2022-10-01T08:09:46.953Z,20.58
2022-10-01T08:11:48.880Z,31.05
2022-10-01T08:13:50.495Z,30.38
2022-10-01T08:15:55.148Z,27.95
2022-10-01T08:17:56.894Z,27.65
2022-10-01T08:19:58.342Z,25.20
2022-10-01T08:21:59.824Z,31.75
2022-10-01T08:24:02.666Z,29.25
2022-10-01T08:26:05.603Z,37.03
2022-10-01T08:28:07.863Z,27.90
2022-10-01T08:30:09.591Z,32.55
2022-10-01T08:32:11.257Z,28.05
2022-10-01T08:34:12.770Z,21.50
2022-10-01T08:36:16.987Z,35.30
2022-10-01T08:38:19.830Z,24.35
2022-10-01T08:40:21.756Z,29.48
2022-10-01T08:42:33.352Z,27.05
2022-10-01T08:44:44.031Z,32.38
2022-10-01T08:46:46.250Z,26.30
2022-10-01T08:49:11.302Z,37.90
2022-10-01T08:51:31.730Z,23.65
2022-10-01T08:53:44.424Z,23.92
2022-10-01T08:55:47.087Z,26.95
2022-10-01T08:57:57.190Z,23.13
2022-10-01T08:59:59.555Z,29.77
2022-10-01T09:02:01.113Z,30.05
2022-10-01T09:04:02.606Z,21.27
2022-10-01T09:06:18.575Z,24.13
2022-10-01T09:08:25.929Z,24.67
2022-10-01T09:10:36.996Z,25.48
2022-10-01T09:12:48.491Z,23.42
2022-10-01T09:15:01.452Z,32.15
2022-10-01T09:17:21.475Z,24.25
2022-10-01T09:19:26.044Z,23.77
2022-10-01T09:21:44.191Z,19.42
2022-10-01T09:23:54.247Z,23.60
2022-10-01T09:25:57.443Z,23.83
2022-10-01T09:28:07.404Z,34.08
2022-10-01T09:30:17.846Z,19.30
2022-10-01T09:32:22.464Z,21.83
2022-10-01T09:34:35.376Z,22.20
2022-10-01T09:36:39.638Z,20.67
2022-10-01T09:38:52.544Z,24.33
2022-10-01T09:40:54.910Z,21.55
2022-10-01T09:42:56.502Z,28.55
2022-10-01T09:44:58.212Z,26.67
2022-10-01T09:46:59.883Z,22.35
2022-10-01T09:49:07.461Z,25.42
2022-10-01T09:51:40.031Z,24.80
2022-10-01T09:54:09.350Z,21.00
2022-10-01T09:56:26.370Z,23.05
2022-10-01T09:58:32.432Z,21.02
2022-10-01T10:00:37.807Z,15.27
2022-10-01T10:02:49.295Z,26.45
2022-10-01T10:05:17.360Z,28.77
2022-10-01T10:07:22.232Z,27.30
2022-10-01T10:09:33.973Z,17.13
2022-10-01T10:11:49.935Z,18.98
2022-10-01T10:13:57.964Z,27.65
2022-10-01T10:16:01.157Z,20.33
2022-10-01T10:18:12.202Z,21.10
2022-10-01T10:20:21.118Z,26.48
2022-10-01T10:22:26.565Z,24.20
2022-10-01T10:24:37.132Z,20.13
2022-10-01T10:26:39.994Z,20.33
2022-10-01T10:28:44.244Z,26.83
2022-10-01T10:30:46.330Z,17.95
2022-10-01T10:32:48.092Z,12.82
2022-10-01T10:34:49.914Z,17.17
2022-10-01T10:36:57.072Z,22.30
2022-10-01T10:38:59.244Z,21.83
2022-10-01T10:41:01.719Z,22.00
2022-10-01T10:43:03.564Z,15.20
2022-10-01T10:45:14.135Z,17.27
2022-10-01T10:47:16.939Z,13.88
2022-10-01T10:49:27.998Z,19.88
2022-10-01T10:51:30.197Z,10.88
2022-10-01T10:53:44.997Z,15.95
2022-10-01T10:56:01.245Z,22.73
2022-10-01T10:58:12.601Z,19.80
2022-10-01T11:00:16.544Z,20.83
2022-10-01T11:04:32.131Z,19.52
2022-10-01T11:06:33.822Z,19.40
2022-10-01T11:08:35.908Z,17.95
2022-10-01T11:11:03.729Z,18.15
2022-10-01T11:13:11.538Z,16.55
2022-10-01T11:15:33.774Z,20.17
2022-10-01T11:17:41.224Z,14.85
2022-10-01T11:20:10.890Z,20.10
2022-10-01T11:22:18.692Z,13.35
2022-10-01T11:24:46.371Z,13.98
2022-10-01T11:26:59.197Z,15.93
2022-10-01T11:29:00.807Z,14.20
2022-10-01T11:31:18.074Z,10.45
2022-10-01T11:33:22.555Z,13.57
2022-10-01T11:35:47.717Z,19.35
2022-10-01T11:37:55.104Z,12.10
2022-10-01T11:39:58.857Z,10.27
2022-10-01T11:42:02.666Z,13.65
2022-10-01T11:46:25.380Z,10.50
2022-10-01T11:48:40.439Z,8.80
2022-10-01T11:50:43.888Z,15.18
2022-10-01T11:52:47.965Z,10.88
2022-10-01T11:54:56.320Z,11.88
2022-10-01T11:57:16.897Z,17.88
2022-10-01T11:59:28.399Z,10.15
2022-10-01T12:01:30.146Z,12.45
2022-10-01T12:03:55.150Z,11.05
2022-10-01T12:05:57.370Z,14.48
2022-10-01T12:08:02.409Z,11.65
2022-10-01T12:10:12.754Z,16.92
2022-10-01T12:12:19.307Z,15.68
2022-10-01T12:14:23.492Z,12.32
2022-10-01T12:16:31.177Z,15.30
2022-10-01T12:18:52.949Z,10.45
2022-10-01T12:20:55.834Z,10.52
2022-10-01T12:22:58.423Z,15.68
2022-10-01T12:25:00.180Z,9.98
2022-10-01T12:27:11.725Z,10.82
2022-10-01T12:29:25.484Z,8.93
2022-10-01T12:31:27.161Z,10.90
2022-10-01T12:33:35.675Z,11.18
2022-10-01T12:35:49.000Z,11.63
2022-10-01T12:38:00.528Z,8.90
2022-10-01T12:40:19.415Z,18.05
2022-10-01T12:42:31.258Z,11.05
2022-10-01T12:44:38.051Z,9.63
2022-10-01T12:46:49.785Z,13.18
2022-10-01T12:49:14.111Z,7.55
2022-10-01T12:51:16.005Z,9.10
2022-10-01T12:53:28.303Z,12.68
2022-10-01T12:56:00.472Z,7.90
2022-10-01T12:58:17.506Z,13.98
2022-10-01T13:00:27.275Z,8.38
2022-10-01T13:02:43.445Z,13.05
2022-10-01T13:05:13.153Z,13.32
2022-10-01T13:07:34.094Z,12.73
2022-10-01T13:09:38.427Z,16.30
2022-10-01T13:11:54.509Z,10.35
2022-10-01T13:14:03.632Z,15.48
2022-10-01T13:16:23.616Z,13.55
2022-10-01T13:18:55.236Z,14.98
2022-10-01T13:21:04.600Z,9.93
2022-10-01T13:23:21.963Z,9.10
2022-10-01T13:25:23.658Z,12.02
2022-10-01T13:27:35.978Z,9.88
2022-10-01T13:29:43.175Z,10.43
2022-10-01T13:31:59.635Z,14.38
2022-10-01T13:34:02.766Z,7.35
2022-10-01T13:36:05.557Z,8.75
2022-10-01T13:38:17.538Z,10.20
2022-10-01T13:40:27.796Z,15.77
2022-10-01T13:42:47.882Z,13.55
2022-10-01T13:44:53.708Z,9.98
2022-10-01T13:47:06.022Z,15.18
2022-10-01T13:49:18.278Z,10.38
2022-10-01T13:51:20.361Z,11.88
2022-10-01T13:53:23.216Z,11.38
2022-10-01T13:55:29.107Z,10.20
2022-10-01T13:57:32.880Z,12.15
2022-10-01T13:59:36.650Z,10.10
2022-10-01T14:01:40.230Z,6.95
2022-10-01T14:03:55.880Z,7.20
2022-10-01T14:05:58.932Z,11.60
2022-10-01T14:08:14.698Z,11.37
2022-10-01T14:10:16.636Z,12.50
2022-10-01T14:12:39.141Z,11.02
2022-10-01T14:15:01.414Z,15.05
2022-10-01T14:17:03.381Z,14.55
2022-10-01T14:19:05.000Z,13.43
2022-10-01T14:21:15.782Z,15.43
2022-10-01T14:23:19.419Z,9.63
2022-10-01T14:25:33.001Z,10.55
2022-10-01T14:27:53.019Z,6.82
2022-10-01T14:30:07.149Z,8.73
2022-10-01T14:32:14.785Z,11.00
2022-10-01T14:34:19.008Z,13.80
2022-10-01T14:36:35.266Z,18.02
2022-10-01T14:38:37.182Z,12.85
2022-10-01T14:40:40.175Z,9.57
2022-10-01T14:42:41.661Z,5.93
2022-10-01T14:44:44.426Z,9.43
2022-10-01T14:46:46.031Z,13.18
2022-10-01T14:48:56.434Z,11.10
2022-10-01T14:50:59.157Z,16.02
2022-10-01T14:53:00.963Z,10.57
2022-10-01T14:55:13.088Z,7.70
2022-10-01T14:57:29.426Z,7.03
2022-10-01T14:59:35.455Z,10.27
2022-10-01T15:01:37.359Z,10.50
2022-10-01T15:03:40.087Z,14.75
2022-10-01T15:05:42.355Z,13.40
2022-10-01T15:07:45.978Z,9.75
2022-10-01T15:09:48.261Z,14.63
2022-10-01T15:11:51.118Z,11.52
2022-10-01T15:13:56.558Z,9.48
2022-10-01T15:15:58.118Z,8.10
2022-10-01T15:17:59.763Z,11.48
2022-10-01T15:20:01.571Z,8.07
2022-10-01T15:22:03.379Z,10.90
2022-10-01T15:24:06.591Z,13.48
2022-10-01T15:26:11.434Z,10.05
2022-10-01T15:28:13.715Z,11.60
2022-10-01T15:30:18.196Z,10.98
2022-10-01T15:32:22.426Z,15.55
2022-10-01T15:34:25.690Z,8.13
2022-10-01T15:36:27.619Z,14.25
2022-10-01T15:38:31.282Z,11.07
2022-10-01T15:40:36.532Z,15.25
2022-10-01T15:42:37.960Z,11.25
2022-10-01T15:44:41.354Z,9.02
2022-10-01T15:46:42.813Z,6.80
2022-10-01T15:48:45.091Z,10.80
2022-10-01T15:50:56.690Z,11.10
2022-10-01T15:53:06.317Z,45.03
2022-10-01T15:55:15.422Z,14.95
2022-10-01T15:57:24.659Z,7.82
2022-10-01T15:59:28.550Z,14.00
2022-10-01T16:01:44.250Z,6.68
2022-10-01T16:03:53.769Z,8.90
2022-10-01T16:06:02.500Z,12.93
2022-10-01T16:08:10.454Z,9.35
2022-10-01T16:10:20.963Z,12.60
2022-10-01T16:12:30.543Z,8.27
2022-10-01T16:14:42.017Z,10.95
2022-10-01T16:16:51.534Z,10.20
2022-10-01T16:19:22.222Z,14.18
2022-10-01T16:21:31.924Z,11.88
2022-10-01T16:23:46.701Z,11.25
2022-10-01T16:25:56.571Z,8.07
2022-10-01T16:28:01.267Z,19.58
2022-10-01T16:30:08.803Z,10.55
2022-10-01T16:32:13.527Z,12.35
2022-10-01T16:34:16.578Z,11.73
2022-10-01T16:36:24.275Z,13.02
2022-10-01T16:38:28.259Z,14.45
2022-10-01T16:40:31.457Z,8.48
2022-10-01T16:42:34.181Z,13.57
2022-10-01T16:44:38.218Z,10.13
2022-10-01T16:46:40.000Z,13.75
2022-10-01T16:48:41.784Z,8.77
2022-10-01T16:50:45.603Z,10.70
2022-10-01T16:52:47.668Z,15.13
2022-10-01T16:54:49.177Z,10.90
2022-10-01T16:56:55.258Z,7.28
2022-10-01T16:58:56.828Z,10.90
2022-10-01T17:00:58.785Z,14.85
2022-10-01T17:03:00.343Z,14.30
2022-10-01T17:05:01.839Z,10.50
2022-10-01T17:07:03.663Z,8.27
2022-10-01T17:09:05.159Z,14.45
2022-10-01T17:11:10.612Z,12.38
2022-10-01T17:13:14.934Z,11.07
2022-10-01T17:15:18.151Z,8.27
2022-10-01T17:17:19.750Z,11.68
2022-10-01T17:19:22.215Z,8.45
2022-10-01T17:21:23.764Z,12.55
2022-10-01T17:23:25.356Z,11.85
2022-10-01T17:25:33.357Z,11.75
2022-10-01T17:27:34.886Z,8.43
2022-10-01T17:29:40.275Z,8.15
2022-10-01T17:31:44.954Z,6.55
2022-10-01T17:33:46.476Z,14.00
2022-10-01T17:35:54.645Z,6.82
2022-10-01T17:37:56.250Z,13.88
2022-10-01T17:39:57.788Z,13.55
2022-10-01T17:41:59.367Z,11.85
2022-10-01T17:44:01.340Z,7.63
2022-10-01T17:46:03.101Z,10.52
2022-10-01T17:48:04.912Z,11.13
2022-10-01T17:50:07.057Z,11.20
2022-10-01T17:52:08.870Z,13.43
2022-10-01T17:54:10.320Z,14.98
2022-10-01T17:56:15.988Z,9.15
2022-10-01T17:58:17.508Z,8.82
2022-10-01T18:00:36.707Z,9.18
2022-10-01T18:02:42.915Z,12.20
2022-10-01T18:04:45.917Z,13.90
2022-10-01T18:06:49.475Z,8.70
2022-10-01T18:08:55.509Z,10.32
2022-10-01T18:11:08.070Z,13.25
2022-10-01T18:13:09.633Z,13.73
2022-10-01T18:15:11.239Z,6.72
2022-10-01T18:17:12.711Z,7.80
2022-10-01T18:21:36.039Z,8.98
2022-10-01T18:23:37.560Z,11.05
2022-10-01T18:25:39.044Z,9.88
2022-10-01T18:27:40.565Z,14.13
2022-10-01T18:29:42.325Z,11.23
2022-10-01T18:31:45.127Z,11.75
2022-10-01T18:33:48.776Z,15.15
2022-10-01T18:35:54.528Z,12.30
2022-10-01T18:37:58.043Z,8.55
2022-10-01T18:40:02.953Z,11.18
2022-10-01T18:42:31.031Z,8.60
2022-10-01T18:44:32.645Z,15.48
2022-10-01T18:46:41.304Z,9.77
2022-10-01T18:48:51.680Z,6.53
2022-10-01T18:50:57.025Z,10.55
2022-10-01T18:52:58.580Z,15.20
2022-10-01T18:55:12.587Z,8.13
2022-10-01T18:57:31.581Z,9.43
2022-10-01T18:59:46.449Z,13.95
2022-10-01T19:02:03.102Z,11.38
2022-10-01T19:04:24.628Z,13.23
2022-10-01T19:06:42.418Z,18.50
2022-10-01T19:09:08.036Z,10.93
2022-10-01T19:11:17.962Z,9.60
2022-10-01T19:13:32.561Z,12.95
2022-10-01T19:15:56.322Z,19.38
2022-10-01T19:18:02.077Z,13.55
2022-10-01T19:20:20.974Z,21.15
2022-10-01T19:22:49.023Z,13.75
2022-10-01T19:25:15.181Z,18.15
2022-10-01T19:27:23.436Z,15.98
2022-10-01T19:29:44.216Z,19.75
2022-10-01T19:31:59.011Z,14.77
2022-10-01T19:34:04.978Z,14.43
2022-10-01T19:36:09.944Z,14.75
2022-10-01T19:38:29.903Z,13.75
2022-10-01T19:40:46.325Z,23.63
2022-10-01T19:42:50.916Z,20.58
2022-10-01T19:45:12.638Z,17.38
2022-10-01T19:47:36.279Z,20.23
2022-10-01T19:49:38.539Z,15.95
2022-10-01T19:51:45.392Z,16.50
2022-10-01T19:53:50.209Z,18.95
2022-10-01T19:55:52.542Z,19.20
2022-10-01T19:57:54.170Z,13.77
2022-10-01T19:59:59.664Z,16.58
2022-10-01T20:02:06.726Z,15.65
2022-10-01T20:04:14.651Z,13.05
2022-10-01T20:06:28.592Z,12.20
2022-10-01T20:08:30.066Z,17.38
2022-10-01T20:10:41.491Z,22.50
2022-10-01T20:13:01.754Z,14.48
2022-10-01T20:15:09.737Z,15.77
2022-10-01T20:17:16.454Z,18.75
2022-10-01T20:19:30.950Z,19.92
2022-10-01T20:21:43.945Z,18.40
2022-10-01T20:24:01.417Z,19.88
2022-10-01T20:26:25.979Z,15.35
2022-10-01T20:28:30.562Z,12.50
2022-10-01T20:30:36.347Z,18.60
2022-10-01T20:32:56.125Z,20.55
2022-10-01T20:35:22.182Z,19.02
2022-10-01T20:39:28.536Z,18.50
2022-10-01T20:41:32.205Z,18.92
2022-10-01T20:43:44.593Z,18.60
2022-10-01T20:45:47.382Z,16.75
2022-10-01T20:47:54.027Z,17.50
2022-10-01T20:50:01.355Z,17.67
2022-10-01T20:52:21.760Z,24.35
2022-10-01T20:54:25.337Z,19.52
2022-10-01T20:56:36.606Z,12.35
2022-10-01T20:58:44.657Z,22.73
2022-10-01T21:00:46.928Z,13.38
2022-10-01T21:02:51.860Z,15.85
2022-10-01T21:05:02.012Z,18.85
2022-10-01T21:07:23.307Z,16.77
2022-10-01T21:09:28.934Z,22.60
2022-10-01T21:11:30.633Z,21.23
2022-10-01T21:13:35.783Z,21.83
2022-10-01T21:15:43.602Z,21.23
2022-10-01T21:18:11.240Z,16.27
2022-10-01T21:20:14.081Z,24.60
2022-10-01T21:22:27.624Z,15.13
2022-10-01T21:24:31.651Z,20.90
2022-10-01T21:28:37.131Z,21.57
2022-10-01T21:30:57.349Z,19.90
2022-10-01T21:33:02.633Z,19.08
2022-10-01T21:35:24.486Z,19.65
2022-10-01T21:37:29.251Z,20.73
2022-10-01T21:39:41.343Z,21.50
2022-10-01T21:41:58.667Z,18.00
2022-10-01T21:44:00.622Z,21.30
2022-10-01T21:46:20.943Z,20.63
2022-10-01T21:48:25.483Z,23.50
2022-10-01T21:50:35.115Z,18.42
2022-10-01T21:52:45.758Z,16.48
2022-10-01T21:54:50.637Z,17.17
2022-10-01T21:56:55.051Z,17.40
2022-10-01T21:58:56.561Z,18.15
2022-10-01T22:01:08.396Z,17.42
2022-10-01T22:03:10.208Z,20.83
2022-10-01T22:05:24.870Z,28.90
2022-10-01T22:07:32.282Z,13.93
2022-10-01T22:09:40.664Z,19.92
2022-10-01T22:11:47.223Z,17.48
2022-10-01T22:14:02.625Z,15.65
2022-10-01T22:16:13.939Z,18.98
2022-10-01T22:18:27.304Z,26.13
2022-10-01T22:20:37.417Z,16.90
2022-10-01T22:22:43.713Z,18.33
2022-10-01T22:24:57.118Z,22.15
2022-10-01T22:27:14.743Z,12.80
2022-10-01T22:29:26.565Z,18.83
2022-10-01T22:31:39.586Z,13.32
2022-10-01T22:34:00.398Z,19.02
2022-10-01T22:36:27.259Z,18.35
2022-10-01T22:38:30.210Z,15.82
2022-10-01T22:40:34.814Z,19.08
2022-10-01T22:42:40.979Z,15.32
2022-10-01T22:44:42.550Z,10.20
2022-10-01T22:47:22.906Z,11.23
2022-10-01T22:49:24.438Z,13.40
2022-10-01T22:51:35.034Z,13.55
2022-10-01T22:53:51.511Z,17.75
2022-10-01T22:55:53.222Z,17.45
2022-10-01T22:57:54.722Z,16.35
2022-10-01T22:59:59.639Z,16.55
2022-10-01T23:02:19.955Z,15.80
2022-10-01T23:04:33.019Z,9.15
2022-10-01T23:06:37.991Z,12.75
2022-10-01T23:09:06.048Z,9.20
2022-10-01T23:11:23.713Z,17.48
2022-10-01T23:13:28.014Z,18.35
2022-10-01T23:15:36.183Z,16.65
2022-10-01T23:17:41.356Z,17.05
2022-10-01T23:20:08.879Z,11.90
2022-10-01T23:22:35.046Z,14.85
2022-10-01T23:24:50.573Z,11.05
2022-10-01T23:26:57.590Z,9.73
2022-10-01T23:29:20.389Z,13.95
2022-10-01T23:31:27.149Z,11.10
2022-10-01T23:33:35.056Z,16.33
2022-10-01T23:35:40.355Z,10.82
2022-10-01T23:38:04.812Z,17.60
2022-10-01T23:40:11.243Z,16.58
2022-10-01T23:42:28.172Z,13.23
2022-10-01T23:44:29.686Z,11.13
2022-10-01T23:46:32.106Z,11.95
2022-10-01T23:48:33.677Z,10.75
2022-10-01T23:50:41.083Z,8.45
2022-10-01T23:52:45.386Z,10.77
2022-10-01T23:54:46.920Z,12.77
2022-10-01T23:56:51.098Z,16.90
2022-10-01T23:59:10.651Z,13.65
